createdAt,value
2023-01-13T00:00:49.920Z,5.55
2023-01-13T00:10:58.734Z,5.48
2023-01-13T00:21:02.519Z,5.47
2023-01-13T00:31:10.155Z,5.43
2023-01-13T00:41:17.642Z,5.65
2023-01-13T00:51:22.006Z,5.87
2023-01-13T01:01:25.617Z,5.84
2023-01-13T01:11:30.863Z,5.87
2023-01-13T01:21:34.193Z,5.81
2023-01-13T01:31:36.684Z,5.70
2023-01-13T01:41:39.206Z,5.80
2023-01-13T01:52:13.961Z,5.79
2023-01-13T02:02:16.575Z,5.79
2023-01-13T02:12:34.799Z,5.89
2023-01-13T02:23:02.140Z,5.70
2023-01-13T02:33:49.135Z,5.54
2023-01-13T02:44:09.627Z,5.49
2023-01-13T02:54:21.524Z,5.54
2023-01-13T03:04:49.941Z,5.56
2023-01-13T03:15:04.591Z,5.60
2023-01-13T03:25:24.142Z,5.56
2023-01-13T03:35:32.013Z,5.42
2023-01-13T03:45:37.388Z,5.28
2023-01-13T03:55:47.702Z,5.24
2023-01-13T04:05:58.436Z,5.31
2023-01-13T04:16:01.186Z,5.33
2023-01-13T04:26:03.619Z,5.39
2023-01-13T04:36:06.370Z,5.34
2023-01-13T04:46:08.806Z,5.20
2023-01-13T04:56:11.237Z,5.23
2023-01-13T05:06:13.926Z,5.32
2023-01-13T05:16:34.901Z,5.35
2023-01-13T05:26:37.292Z,5.29
2023-01-13T05:36:39.811Z,5.22
2023-01-13T05:46:42.310Z,5.28
2023-01-13T05:56:44.703Z,5.35
2023-01-13T06:06:47.450Z,5.31
2023-01-13T06:16:50.145Z,5.16
2023-01-13T06:26:52.780Z,5.22
2023-01-13T06:36:56.255Z,5.30
2023-01-13T06:46:59.029Z,5.32
2023-01-13T06:57:02.317Z,5.45
2023-01-13T07:07:04.896Z,5.39
2023-01-13T07:17:07.323Z,5.43
2023-01-13T07:27:09.722Z,5.59
2023-01-13T07:37:12.122Z,5.73
2023-01-13T07:47:14.799Z,5.81
2023-01-13T07:57:17.236Z,5.96
2023-01-13T08:07:19.616Z,5.99
2023-01-13T08:17:22.038Z,6.27
2023-01-13T08:27:24.417Z,6.49
2023-01-13T08:37:26.824Z,6.90
2023-01-13T08:47:29.336Z,7.17
2023-01-13T08:57:31.764Z,7.53
2023-01-13T09:07:35.640Z,7.90
2023-01-13T09:17:38.129Z,8.20
2023-01-13T09:27:40.570Z,8.24
2023-01-13T09:37:43.087Z,8.33
2023-01-13T09:47:52.812Z,8.54
2023-01-13T09:57:55.194Z,9.24
2023-01-13T10:08:03.055Z,9.42
2023-01-13T10:18:24.331Z,9.27
2023-01-13T10:28:26.793Z,9.28
2023-01-13T10:38:36.070Z,9.23
2023-01-13T10:48:44.198Z,9.32
2023-01-13T10:58:47.317Z,8.93
2023-01-13T11:08:51.808Z,8.81
2023-01-13T11:19:02.784Z,9.05
2023-01-13T11:29:14.348Z,8.86
2023-01-13T11:39:41.512Z,8.43
2023-01-13T11:49:48.817Z,8.47
2023-01-13T12:00:16.785Z,8.45
2023-01-13T12:10:30.376Z,8.67
2023-01-13T12:20:51.066Z,8.75
2023-01-13T12:31:00.962Z,8.99
2023-01-13T12:42:01.690Z,9.16
2023-01-13T12:52:14.013Z,8.74
2023-01-13T13:02:25.929Z,8.47
2023-01-13T13:12:49.839Z,8.43
2023-01-13T13:22:52.466Z,8.13
2023-01-13T13:33:13.531Z,8.07
2023-01-13T13:43:35.013Z,7.61
2023-01-13T13:53:41.330Z,7.33
2023-01-13T14:03:43.821Z,7.07
2023-01-13T14:13:46.206Z,6.76
2023-01-13T14:23:53.970Z,6.53
2023-01-13T14:33:58.786Z,6.45
2023-01-13T14:44:08.249Z,6.23
2023-01-13T14:54:43.635Z,6.07
2023-01-13T15:04:46.095Z,5.90
2023-01-13T15:14:50.845Z,5.81
2023-01-13T15:24:53.241Z,5.56
2023-01-13T15:34:55.640Z,5.31
2023-01-13T15:45:16.914Z,4.78
2023-01-13T15:55:19.339Z,4.74
2023-01-13T16:05:21.771Z,4.69
2023-01-13T16:15:25.213Z,4.43
2023-01-13T16:25:27.897Z,4.16
2023-01-13T16:35:32.268Z,4.10
2023-01-13T16:45:35.174Z,4.47
2023-01-13T16:55:39.996Z,4.70
2023-01-13T17:05:44.351Z,5.05
2023-01-13T17:15:46.774Z,4.89
2023-01-13T17:25:49.167Z,4.78
2023-01-13T17:35:51.538Z,4.60
2023-01-13T17:45:54.059Z,4.30
2023-01-13T17:55:56.462Z,4.20
2023-01-13T18:06:22.888Z,4.16
2023-01-13T18:16:26.976Z,4.12
2023-01-13T18:26:51.554Z,4.07
2023-01-13T18:36:53.988Z,4.13
2023-01-13T18:46:56.352Z,4.05
2023-01-13T18:56:59.008Z,3.83
2023-01-13T19:07:01.557Z,3.74
2023-01-13T19:17:09.492Z,3.77
2023-01-13T19:27:16.906Z,3.69
2023-01-13T19:37:19.658Z,3.51
2023-01-13T19:47:22.071Z,3.38
2023-01-13T19:57:25.928Z,3.28
2023-01-13T20:07:30.565Z,3.16
2023-01-13T20:17:33.129Z,3.18
2023-01-13T20:27:35.802Z,3.25
2023-01-13T20:37:38.533Z,3.21
2023-01-13T20:47:41.117Z,3.32
2023-01-13T20:57:43.760Z,3.30
2023-01-13T21:07:46.221Z,3.11
2023-01-13T21:18:09.689Z,3.16
2023-01-13T21:28:13.687Z,3.37
2023-01-13T21:40:13.360Z,3.56
2023-01-13T21:50:24.904Z,3.89
2023-01-13T22:10:18.197Z,3.72
2023-01-13T22:20:21.607Z,3.50
2023-01-13T22:30:25.296Z,3.34
2023-01-13T22:40:27.755Z,3.43
2023-01-13T22:50:30.362Z,3.19
2023-01-13T23:00:33.536Z,2.99
2023-01-13T23:10:36.014Z,2.87
2023-01-13T23:20:38.385Z,2.61
2023-01-13T23:30:40.886Z,2.92
2023-01-13T23:40:45.583Z,2.65
2023-01-13T23:50:58.071Z,2.63
